Terminal Aerodrome Forecast
Issued by NWS

Home | Current Version | Previous Version | Text Only | Print | Product List | Glossary On
Versions: 1 2 3 4 5 6 7 8 9 10 11 12 13 14 15 16
000
FTUS46 KLOX 252000 AAA
TAFSBP
TAF AMD
KSBP 252003Z 2520/2618 36013G18KT P6SM SKC
     FM260200 32007KT P6SM SKC
     FM260700 VRB03KT P6SM SKC=

USA.gov is the U.S. government's official web portal to all federal, state and local government web resources and services.